TimePST,TemperatureF,Dew PointF,Humidity,Sea Level PressureIn,VisibilityMPH,Wind Direction,Wind SpeedMPH,Gust SpeedMPH,PrecipitationIn,Events,Conditions,WindDirDegrees,DateUTC
12:52 AM,46.9,32.0,56,30.08,8.0,Calm,Calm,-,N/A,,Partly Cloudy,0,2013-01-12 08:52:00
1:00 AM,-9999,-9999,N/A,-9999,-9999.0,North,-9999.0,-,N/A,,Unknown,0,2013-01-12 09:00:00
1:52 AM,46.0,33.1,61,30.09,8.0,ESE,4.6,-,N/A,,Partly Cloudy,120,2013-01-12 09:52:00
2:52 AM,45.0,34.0,65,30.07,10.0,ESE,5.8,-,N/A,,Mostly Cloudy,120,2013-01-12 10:52:00
3:52 AM,45.0,35.1,68,30.08,10.0,Calm,Calm,-,N/A,,Mostly Cloudy,0,2013-01-12 11:52:00
4:52 AM,42.1,33.1,70,30.08,10.0,Calm,Calm,-,N/A,,Mostly Cloudy,0,2013-01-12 12:52:00
5:52 AM,42.1,33.1,70,30.09,10.0,East,8.1,-,N/A,,Partly Cloudy,80,2013-01-12 13:52:00
6:52 AM,43.0,33.1,68,30.12,10.0,East,3.5,-,N/A,,Partly Cloudy,80,2013-01-12 14:52:00
7:52 AM,45.0,34.0,65,30.14,10.0,East,8.1,-,N/A,,Partly Cloudy,80,2013-01-12 15:52:00
8:52 AM,48.0,35.1,61,30.16,10.0,ESE,4.6,-,N/A,,Partly Cloudy,120,2013-01-12 16:52:00
9:52 AM,52.0,35.1,53,30.17,10.0,ESE,5.8,-,N/A,,Partly Cloudy,120,2013-01-12 17:52:00
10:52 AM,54.0,34.0,47,30.15,10.0,SSE,4.6,-,N/A,,Partly Cloudy,160,2013-01-12 18:52:00
11:52 AM,55.9,28.0,34,30.12,10.0,Calm,Calm,-,N/A,,Partly Cloudy,0,2013-01-12 19:52:00
12:52 PM,57.0,21.0,25,30.10,10.0,SW,5.8,-,N/A,,Scattered Clouds,230,2013-01-12 20:52:00
1:52 PM,57.0,19.9,24,30.09,10.0,SW,9.2,-,N/A,,Partly Cloudy,230,2013-01-12 21:52:00
2:52 PM,57.0,26.1,30,30.09,10.0,West,11.5,-,N/A,,Partly Cloudy,260,2013-01-12 22:52:00
3:52 PM,55.9,26.1,32,30.09,10.0,WNW,8.1,-,N/A,,Partly Cloudy,290,2013-01-12 23:52:00
4:52 PM,54.0,26.1,34,30.09,10.0,West,6.9,-,N/A,,Partly Cloudy,280,2013-01-13 00:52:00
5:52 PM,52.0,28.9,41,30.10,10.0,NW,3.5,-,N/A,,Partly Cloudy,310,2013-01-13 01:52:00
6:52 PM,51.1,30.0,44,30.11,10.0,Calm,Calm,-,N/A,,Partly Cloudy,0,2013-01-13 02:52:00
7:52 PM,48.0,28.9,48,30.11,10.0,ENE,3.5,-,N/A,,Partly Cloudy,60,2013-01-13 03:52:00
8:52 PM,46.9,28.9,50,30.12,9.0,East,3.5,-,N/A,,Partly Cloudy,80,2013-01-13 04:52:00
9:52 PM,44.1,27.0,51,30.12,9.0,East,4.6,-,N/A,,Partly Cloudy,90,2013-01-13 05:52:00
10:52 PM,44.1,28.0,53,30.12,10.0,Calm,Calm,-,N/A,,Clear,0,2013-01-13 06:52:00
11:52 PM,43.0,27.0,53,30.11,10.0,Calm,Calm,-,N/A,,Partly Cloudy,0,2013-01-13 07:52:00